Kezdőlap
METAR-TAF:

METAR-TAF

Repülőterek :

Avignon, Franciaország

földrajzi szélesség: 43-54-26N, földrajzi hosszúság: 004-54-07E, magasság: 38 m

Jelenlegi meteorológiai megfigyelések

A jelentés 21 perccel ezelõtt készült, 20:00 UTC
Különbözõ irányokból fújó szél 1 kt
Hőmérséklet 7°C
Páratartalom 87%
Légköri nyomás 1033 hPa
Látótávolság 10 km, vagy több
felhőtlen 1500 m magasságban, és nincs gomolyfelhõ

METAR: LFMV 222000Z AUTO VRB01KT CAVOK 07/05 Q1033 NOSIG

Idő: 21:21 (20:21 UTC)

Előrejelzés

A jelentés 6 órával és 21 perccel ezelõtt készült, 14:00 UTC
Az előrejelzés 22-én 15 óra UTC és 23-én 15 óra UTC között érvényes
Különbözõ irányokból fújó szél 3 kt
Látótávolság 10 km, vagy több
felhőtlen 1500 m magasságban, és nincs gomolyfelhõ

TAF: LFMV 221400Z 2215/2315 VRB03KT CAVOK

Meteorológiai megfigyelések és előrejelzések több, mint 4000 repülőtéren (METAR és TAF jelentéseket).

A térképen piros és sárga pontok jelzik az elérhető meteorológiai állomásokat.

Mozgassa az egeret a pont fölött, hogy megjelenjen az állomás neve.

Azután kattintson az időjárási megfigyelések és előrejelzések megtekintéséhez.

A térkép megváltoztatása: kattintson a fekete keresztel jelölt zöld gombra ráközelítéshez, a vonallal jelölt zöld gombra távolításhoz, vagy a zöld nyilakra a szomszédos térképek eléréséhez.


METAR-TAF: